createdAt,value
2016-06-23T00:00:29.954Z,80
2016-06-23T00:01:29.267Z,80
2016-06-23T00:02:28.045Z,80
2016-06-23T00:03:28.047Z,80
2016-06-23T00:04:28.054Z,80
2016-06-23T00:05:29.287Z,80
2016-06-23T00:06:28.730Z,84
2016-06-23T00:07:28.693Z,84
2016-06-23T00:08:29.306Z,84
2016-06-23T00:09:28.815Z,84
2016-06-23T00:10:28.708Z,84
2016-06-23T00:11:29.515Z,84
2016-06-23T00:12:29.345Z,84
2016-06-23T00:13:29.398Z,84
2016-06-23T00:14:28.732Z,84
2016-06-23T00:15:28.753Z,80
2016-06-23T00:16:29.370Z,84
2016-06-23T00:17:28.137Z,84
2016-06-23T00:18:28.775Z,84
2016-06-23T00:19:28.767Z,84
2016-06-23T00:20:29.431Z,84
2016-06-23T00:21:28.774Z,84
2016-06-23T00:22:28.174Z,84
2016-06-23T00:23:28.790Z,84
2016-06-23T00:24:28.791Z,84
2016-06-23T00:25:28.187Z,84
2016-06-23T00:26:28.814Z,84
2016-06-23T00:27:29.430Z,80
2016-06-23T00:28:29.439Z,84
2016-06-23T00:29:28.214Z,84
2016-06-23T00:30:28.222Z,84
2016-06-23T00:31:28.224Z,80
2016-06-23T00:32:28.249Z,84
2016-06-23T00:33:30.481Z,84
2016-06-23T00:34:28.865Z,80
2016-06-23T00:35:29.122Z,84
2016-06-23T00:36:28.252Z,84
2016-06-23T00:37:29.501Z,80
2016-06-23T00:38:28.286Z,80
2016-06-23T00:39:28.890Z,80
2016-06-23T00:40:28.903Z,84
2016-06-23T00:41:29.530Z,84
2016-06-23T00:42:27.667Z,84
2016-06-23T00:43:28.313Z,84
2016-06-23T00:44:29.485Z,84
2016-06-23T00:45:29.576Z,80
2016-06-23T00:46:30.772Z,84
2016-06-23T00:47:28.965Z,84
2016-06-23T00:48:29.570Z,84
2016-06-23T00:49:28.336Z,84
2016-06-23T00:50:28.963Z,84
2016-06-23T00:51:28.965Z,84
2016-06-23T00:52:28.350Z,84
2016-06-23T00:53:29.590Z,84
2016-06-23T00:54:28.369Z,84
2016-06-23T00:55:29.651Z,80
2016-06-23T00:56:28.381Z,84
2016-06-23T00:57:28.403Z,84
2016-06-23T00:58:28.388Z,84
2016-06-23T00:59:29.643Z,84
2016-06-23T01:00:28.414Z,80
2016-06-23T01:01:29.040Z,80
2016-06-23T01:02:29.670Z,84
2016-06-23T01:03:29.060Z,80
2016-06-23T01:04:28.448Z,84
2016-06-23T01:05:29.063Z,84
2016-06-23T01:06:29.750Z,84
2016-06-23T01:07:29.073Z,84
2016-06-23T01:08:29.192Z,84
2016-06-23T01:09:29.793Z,80
2016-06-23T01:10:29.100Z,84
2016-06-23T01:11:30.080Z,84
2016-06-23T01:12:29.900Z,84
2016-06-23T01:13:30.130Z,84
2016-06-23T01:14:29.187Z,84
2016-06-23T01:15:29.130Z,80
2016-06-23T01:16:29.138Z,84
2016-06-23T01:17:30.058Z,80
2016-06-23T01:18:29.755Z,84
2016-06-23T01:19:30.929Z,84
2016-06-23T01:20:29.778Z,84
2016-06-23T01:21:30.034Z,84
2016-06-23T01:22:29.776Z,80
2016-06-23T01:23:29.795Z,84
2016-06-23T01:24:29.181Z,80
2016-06-23T01:25:29.798Z,80
2016-06-23T01:26:29.813Z,84
2016-06-23T01:27:28.581Z,84
2016-06-23T01:28:29.201Z,84
2016-06-23T01:29:28.601Z,84
2016-06-23T01:30:30.449Z,84
2016-06-23T01:31:28.605Z,84
2016-06-23T01:32:30.200Z,84
2016-06-23T01:33:29.866Z,84
2016-06-23T01:34:29.247Z,84
2016-06-23T01:35:28.639Z,80
2016-06-23T01:36:29.275Z,84
2016-06-23T01:37:29.267Z,84
2016-06-23T01:38:28.661Z,84
2016-06-23T01:39:29.911Z,80
2016-06-23T01:40:29.288Z,84
2016-06-23T01:41:30.010Z,80
2016-06-23T01:42:28.674Z,80
2016-06-23T01:43:29.396Z,80
2016-06-23T01:44:28.701Z,80
2016-06-23T01:45:30.725Z,80
2016-06-23T01:46:28.718Z,80
2016-06-23T01:47:29.348Z,80
2016-06-23T01:48:29.339Z,84
2016-06-23T01:49:29.968Z,80
2016-06-23T01:50:28.112Z,80
2016-06-23T01:51:28.723Z,84
2016-06-23T01:52:30.160Z,84
2016-06-23T01:53:29.976Z,80
2016-06-23T01:54:29.411Z,80
2016-06-23T01:55:29.384Z,80
2016-06-23T01:56:30.748Z,84
2016-06-23T01:57:29.997Z,80
2016-06-23T01:58:30.012Z,80
2016-06-23T01:59:30.023Z,84
2016-06-23T02:00:29.397Z,80
2016-06-23T02:01:28.799Z,84
2016-06-23T02:02:30.043Z,80
2016-06-23T02:03:29.782Z,84
2016-06-23T02:04:30.077Z,84
2016-06-23T02:05:29.445Z,84
2016-06-23T02:06:29.450Z,80
2016-06-23T02:07:30.211Z,84
2016-06-23T02:08:30.227Z,84
2016-06-23T02:09:30.084Z,84
2016-06-23T02:10:30.095Z,84
2016-06-23T02:11:28.859Z,80
2016-06-23T02:12:29.494Z,80
2016-06-23T02:13:29.499Z,80
2016-06-23T02:14:29.549Z,80
2016-06-23T02:15:29.583Z,84
2016-06-23T02:16:28.900Z,80
2016-06-23T02:17:28.899Z,80
2016-06-23T02:18:29.477Z,84
2016-06-23T02:19:30.148Z,80
2016-06-23T02:20:29.548Z,80
2016-06-23T02:21:29.550Z,84
2016-06-23T02:22:29.556Z,80
2016-06-23T02:23:29.586Z,84
2016-06-23T02:24:28.966Z,84
2016-06-23T02:25:30.190Z,84
2016-06-23T02:26:29.574Z,84
2016-06-23T02:27:30.208Z,80
2016-06-23T02:28:29.587Z,84
2016-06-23T02:29:30.052Z,84
2016-06-23T02:30:30.248Z,80
2016-06-23T02:31:29.614Z,84
2016-06-23T02:32:30.222Z,80
2016-06-23T02:33:29.620Z,80
2016-06-23T02:34:29.611Z,84
2016-06-23T02:35:29.653Z,80
2016-06-23T02:36:30.259Z,80
2016-06-23T02:37:30.265Z,80
2016-06-23T02:38:30.507Z,80
2016-06-23T02:39:30.283Z,80
2016-06-23T02:40:30.282Z,80
2016-06-23T02:41:30.286Z,84
2016-06-23T02:42:30.166Z,80
2016-06-23T02:43:29.684Z,80
2016-06-23T02:44:29.734Z,84
2016-06-23T02:45:30.325Z,84
2016-06-23T02:46:29.710Z,84
2016-06-23T02:47:29.706Z,84
2016-06-23T02:48:29.706Z,80
2016-06-23T02:49:30.715Z,84
2016-06-23T02:50:29.130Z,80
2016-06-23T02:51:31.311Z,84
2016-06-23T02:52:29.117Z,80
2016-06-23T02:53:30.607Z,84
2016-06-23T02:54:29.765Z,84
2016-06-23T02:55:29.764Z,84
2016-06-23T02:56:29.176Z,84
2016-06-23T02:57:29.143Z,84
2016-06-23T02:58:29.775Z,84
2016-06-23T02:59:29.828Z,84
2016-06-23T03:00:29.789Z,84
2016-06-23T03:01:29.806Z,84
2016-06-23T03:02:31.508Z,84
2016-06-23T03:03:29.800Z,88
2016-06-23T03:04:30.529Z,88
2016-06-23T03:05:30.460Z,84
2016-06-23T03:06:29.842Z,88
2016-06-23T03:07:29.221Z,88
2016-06-23T03:08:29.886Z,88
2016-06-23T03:09:29.847Z,92
2016-06-23T03:10:29.856Z,92
2016-06-23T03:11:30.515Z,88
2016-06-23T03:12:29.868Z,92
2016-06-23T03:13:30.731Z,96
2016-06-23T03:14:29.890Z,96
2016-06-23T03:15:30.745Z,96
2016-06-23T03:16:30.575Z,100
2016-06-23T03:17:31.619Z,104
2016-06-23T03:18:30.537Z,104
2016-06-23T03:19:30.524Z,108
2016-06-23T03:20:29.912Z,116
2016-06-23T03:21:29.301Z,116
2016-06-23T03:22:29.309Z,124
2016-06-23T03:23:29.942Z,132
2016-06-23T03:24:29.940Z,132
2016-06-23T03:25:29.345Z,140
2016-06-23T03:26:30.189Z,148
2016-06-23T03:27:29.349Z,152
2016-06-23T03:28:29.972Z,156
2016-06-23T03:29:30.614Z,164
2016-06-23T03:30:30.586Z,172
2016-06-23T03:31:30.613Z,176
2016-06-23T03:32:29.994Z,184
2016-06-23T03:33:29.992Z,188
2016-06-23T03:34:29.407Z,196
2016-06-23T03:35:29.406Z,204
2016-06-23T03:36:30.627Z,212
2016-06-23T03:37:30.280Z,220
2016-06-23T03:38:30.020Z,228
2016-06-23T03:39:30.032Z,232
2016-06-23T03:40:29.430Z,236
2016-06-23T03:41:30.049Z,232
2016-06-23T03:42:29.459Z,236
2016-06-23T03:43:30.061Z,240
2016-06-23T03:44:30.073Z,240
2016-06-23T03:45:29.456Z,240
2016-06-23T03:46:30.084Z,236
2016-06-23T03:47:30.087Z,240
2016-06-23T03:48:31.270Z,252
2016-06-23T03:49:30.117Z,268
2016-06-23T03:50:31.088Z,280
2016-06-23T03:51:30.103Z,292
2016-06-23T03:52:30.129Z,300
2016-06-23T03:53:30.128Z,316
2016-06-23T03:54:30.144Z,336
2016-06-23T03:55:29.541Z,356
2016-06-23T03:56:30.770Z,384
2016-06-23T03:57:28.923Z,404
2016-06-23T03:58:30.776Z,428
2016-06-23T03:59:31.070Z,440
2016-06-23T04:00:30.806Z,456
2016-06-23T04:01:29.566Z,468
2016-06-23T04:02:30.818Z,476
2016-06-23T04:03:29.575Z,492
2016-06-23T04:04:30.218Z,500
2016-06-23T04:05:29.577Z,496
2016-06-23T04:06:30.859Z,504
2016-06-23T04:07:30.225Z,516
2016-06-23T04:08:29.638Z,536
2016-06-23T04:09:30.246Z,548
2016-06-23T04:10:30.849Z,560
2016-06-23T04:11:30.228Z,568
2016-06-23T04:12:30.274Z,560
2016-06-23T04:13:30.262Z,560
2016-06-23T04:14:30.746Z,588
2016-06-23T04:15:29.646Z,584
2016-06-23T04:16:30.266Z,596
2016-06-23T04:17:29.697Z,600
2016-06-23T04:18:30.282Z,612
2016-06-23T04:19:30.955Z,632
2016-06-23T04:20:30.919Z,668
2016-06-23T04:21:30.602Z,696
2016-06-23T04:22:30.310Z,716
2016-06-23T04:23:30.309Z,708
2016-06-23T04:24:30.322Z,692
2016-06-23T04:25:31.048Z,688
2016-06-23T04:26:29.709Z,664
2016-06-23T04:27:29.726Z,672
2016-06-23T04:28:30.970Z,704
2016-06-23T04:29:29.730Z,720
2016-06-23T04:30:29.748Z,780
2016-06-23T04:31:30.987Z,800
2016-06-23T04:32:30.531Z,808
2016-06-23T04:33:29.769Z,816
2016-06-23T04:34:29.777Z,828
2016-06-23T04:35:30.412Z,840
2016-06-23T04:36:30.446Z,824
2016-06-23T04:37:30.411Z,776
2016-06-23T04:38:30.436Z,788
2016-06-23T04:39:31.054Z,624
2016-06-23T04:40:31.044Z,632
2016-06-23T04:41:30.436Z,628
2016-06-23T04:42:29.849Z,628
2016-06-23T04:43:30.442Z,656
2016-06-23T04:44:30.452Z,692
2016-06-23T04:45:29.859Z,728
2016-06-23T04:46:30.463Z,920
2016-06-23T04:47:31.288Z,980
2016-06-23T04:48:31.104Z,1232
2016-06-23T04:49:29.867Z,1264
2016-06-23T04:50:30.534Z,1336
2016-06-23T04:51:31.125Z,1384
2016-06-23T04:52:31.118Z,1436
2016-06-23T04:53:30.513Z,1488
2016-06-23T04:54:31.131Z,1552
2016-06-23T04:55:30.527Z,1620
2016-06-23T04:56:31.087Z,1724
2016-06-23T04:57:29.311Z,1804
2016-06-23T04:58:30.909Z,1924
2016-06-23T04:59:31.184Z,2016
2016-06-23T05:00:31.605Z,2112
2016-06-23T05:01:30.551Z,2176
2016-06-23T05:02:30.566Z,2240
2016-06-23T05:03:30.587Z,2296
2016-06-23T05:04:31.186Z,2336
2016-06-23T05:05:30.601Z,2356
2016-06-23T05:06:30.595Z,2392
2016-06-23T05:07:31.857Z,2444
2016-06-23T05:08:30.616Z,2492
2016-06-23T05:09:30.400Z,2536
2016-06-23T05:10:30.620Z,2616
2016-06-23T05:11:31.743Z,3644
2016-06-23T05:12:31.313Z,7996
2016-06-23T05:13:31.265Z,12856
2016-06-23T05:14:30.662Z,11528
2016-06-23T05:15:30.685Z,14688
2016-06-23T05:16:30.701Z,14984
2016-06-23T05:17:30.841Z,15192
2016-06-23T05:18:31.564Z,15396
2016-06-23T05:19:30.727Z,15436
2016-06-23T05:20:30.712Z,15340
2016-06-23T05:21:30.733Z,15436
2016-06-23T05:22:31.513Z,15676
2016-06-23T05:23:30.119Z,15624
2016-06-23T05:24:30.763Z,15564
2016-06-23T05:25:31.363Z,15364
2016-06-23T05:26:30.775Z,14712
2016-06-23T05:27:30.783Z,12132
2016-06-23T05:28:30.775Z,13252
2016-06-23T05:29:30.804Z,14468
2016-06-23T05:30:31.425Z,12648
2016-06-23T05:31:30.825Z,15904
2016-06-23T05:32:30.206Z,15968
2016-06-23T05:33:32.384Z,16000
2016-06-23T05:34:30.861Z,16224
2016-06-23T05:35:31.472Z,16384
2016-06-23T05:36:30.865Z,16416
2016-06-23T05:37:30.868Z,16512
2016-06-23T05:38:30.271Z,16640
2016-06-23T05:39:30.904Z,16416
2016-06-23T05:40:30.280Z,16448
2016-06-23T05:41:30.318Z,16000
2016-06-23T05:42:32.756Z,15744
2016-06-23T05:43:31.535Z,16160
2016-06-23T05:44:31.309Z,16352
2016-06-23T05:45:30.341Z,16640
2016-06-23T05:46:30.955Z,16800
2016-06-23T05:47:30.095Z,17216
2016-06-23T05:48:29.747Z,17408
2016-06-23T05:49:30.998Z,16896
2016-06-23T05:50:31.007Z,16512
2016-06-23T05:51:30.405Z,16864
2016-06-23T05:52:31.023Z,17888
2016-06-23T05:53:32.114Z,19136
2016-06-23T05:54:31.046Z,19936
2016-06-23T05:55:31.429Z,20576
2016-06-23T05:56:31.085Z,19808
2016-06-23T05:57:30.455Z,19168
2016-06-23T05:58:31.096Z,19008
2016-06-23T05:59:31.952Z,19296
2016-06-23T06:00:30.482Z,19808
2016-06-23T06:01:31.766Z,19456
2016-06-23T06:02:29.902Z,20192
2016-06-23T06:03:31.786Z,22176
2016-06-23T06:04:30.551Z,23360
2016-06-23T06:05:30.546Z,23296
2016-06-23T06:06:31.799Z,24384
2016-06-23T06:07:31.803Z,25280
2016-06-23T06:08:32.972Z,24864
2016-06-23T06:09:31.387Z,19072
2016-06-23T06:10:31.849Z,18624
2016-06-23T06:11:31.245Z,20256
2016-06-23T06:12:31.433Z,21664
2016-06-23T06:13:31.262Z,22368
2016-06-23T06:14:31.886Z,23584
2016-06-23T06:15:30.643Z,24320
2016-06-23T06:16:31.281Z,25248
2016-06-23T06:17:31.303Z,26624
2016-06-23T06:18:31.981Z,26560
2016-06-23T06:19:33.085Z,27552
2016-06-23T06:20:30.735Z,29216
2016-06-23T06:21:31.989Z,30752
2016-06-23T06:22:31.981Z,31296
2016-06-23T06:23:31.378Z,31648
2016-06-23T06:24:31.999Z,31776
2016-06-23T06:25:30.784Z,28832
2016-06-23T06:26:30.773Z,24928
2016-06-23T06:27:31.398Z,25024
2016-06-23T06:28:32.914Z,27680
2016-06-23T06:29:30.803Z,29696
2016-06-23T06:30:32.890Z,31008
2016-06-23T06:31:31.453Z,30720
2016-06-23T06:32:30.843Z,30624
2016-06-23T06:33:30.226Z,30272
2016-06-23T06:34:31.478Z,31776
2016-06-23T06:35:31.514Z,34944
2016-06-23T06:36:32.110Z,37952
2016-06-23T06:37:30.889Z,38816
2016-06-23T06:38:31.549Z,38880
2016-06-23T06:39:32.426Z,39616
2016-06-23T06:40:31.531Z,41088
2016-06-23T06:41:32.100Z,42016
2016-06-23T06:42:31.559Z,42176
2016-06-23T06:43:30.963Z,40544
2016-06-23T06:44:30.968Z,39520
2016-06-23T06:45:31.606Z,38112
2016-06-23T06:46:31.610Z,36576
2016-06-23T06:47:31.635Z,35040
2016-06-23T06:48:31.655Z,38080
2016-06-23T06:49:31.666Z,42624
2016-06-23T06:50:31.058Z,44256
2016-06-23T06:51:31.670Z,44384
2016-06-23T06:52:32.762Z,43104
2016-06-23T06:53:31.077Z,41824
2016-06-23T06:54:33.657Z,42912
2016-06-23T06:55:32.343Z,43680
2016-06-23T06:56:30.495Z,44064
2016-06-23T06:57:31.747Z,41888
2016-06-23T06:58:31.135Z,39840
2016-06-23T06:59:31.151Z,39552
2016-06-23T07:00:31.779Z,42176
2016-06-23T07:01:32.411Z,41184
2016-06-23T07:02:32.409Z,40288
2016-06-23T07:03:32.418Z,41792
2016-06-23T07:04:32.436Z,42976
2016-06-23T07:05:33.731Z,43840
2016-06-23T07:06:32.483Z,43520
2016-06-23T07:07:31.853Z,44256
2016-06-23T07:08:31.892Z,44736
2016-06-23T07:09:31.886Z,44192
2016-06-23T07:10:31.274Z,42752
2016-06-23T07:11:32.551Z,43648
2016-06-23T07:12:31.371Z,44640
2016-06-23T07:13:32.554Z,44224
2016-06-23T07:14:32.495Z,43008
2016-06-23T07:15:31.955Z,43168
2016-06-23T07:16:33.760Z,45664
2016-06-23T07:17:31.998Z,46592
2016-06-23T07:18:32.633Z,46432
2016-06-23T07:19:32.011Z,46592
2016-06-23T07:20:32.657Z,48192
2016-06-23T07:21:32.049Z,47680
2016-06-23T07:22:31.441Z,45344
2016-06-23T07:23:32.679Z,45568
2016-06-23T07:24:31.466Z,44320
2016-06-23T07:25:32.490Z,43776
2016-06-23T07:26:30.854Z,45920
2016-06-23T07:27:33.167Z,49984
2016-06-23T07:28:32.744Z,51296
2016-06-23T07:29:32.767Z,51488
2016-06-23T07:30:32.150Z,49856
2016-06-23T07:31:32.163Z,45760
2016-06-23T07:32:32.807Z,44064
2016-06-23T07:33:31.558Z,44096
2016-06-23T07:34:32.186Z,39008
2016-06-23T07:35:32.206Z,23008
2016-06-23T07:36:32.231Z,7096
2016-06-23T07:37:32.220Z,3076
2016-06-23T07:38:33.978Z,2936
2016-06-23T07:39:31.639Z,2836
2016-06-23T07:40:32.303Z,2736
2016-06-23T07:41:32.302Z,2664
2016-06-23T07:42:31.678Z,2600
2016-06-23T07:43:32.951Z,2424
2016-06-23T07:44:32.312Z,2568
2016-06-23T07:45:32.368Z,2108
2016-06-23T07:46:31.108Z,2324
2016-06-23T07:47:31.787Z,2468
2016-06-23T07:48:32.347Z,1920
2016-06-23T07:49:33.087Z,2216
2016-06-23T07:50:32.981Z,2172
2016-06-23T07:51:32.402Z,2724
2016-06-23T07:52:33.051Z,2692
2016-06-23T07:53:31.771Z,2596
2016-06-23T07:54:32.406Z,2516
2016-06-23T07:55:33.053Z,2452
2016-06-23T07:56:32.434Z,2376
2016-06-23T07:57:32.493Z,2240
2016-06-23T07:58:32.484Z,2284
2016-06-23T07:59:31.846Z,2264
2016-06-23T08:00:33.215Z,2236
2016-06-23T08:01:31.888Z,2216
2016-06-23T08:02:33.110Z,2168
2016-06-23T08:03:32.479Z,2124
2016-06-23T08:04:32.479Z,2088
2016-06-23T08:05:33.117Z,2044
2016-06-23T08:06:31.898Z,2012
2016-06-23T08:07:33.191Z,1976
2016-06-23T08:08:32.542Z,1948
2016-06-23T08:09:31.921Z,1928
2016-06-23T08:10:32.546Z,1884
2016-06-23T08:11:34.532Z,1892
2016-06-23T08:12:32.569Z,1880
2016-06-23T08:13:32.611Z,1872
2016-06-23T08:14:31.963Z,1868
2016-06-23T08:15:33.391Z,1856
2016-06-23T08:16:31.369Z,1824
2016-06-23T08:17:32.603Z,1812
2016-06-23T08:18:31.990Z,1808
2016-06-23T08:19:32.622Z,1792
2016-06-23T08:20:32.009Z,1788
2016-06-23T08:21:32.043Z,1764
2016-06-23T08:22:32.348Z,1752
2016-06-23T08:23:32.662Z,1748
2016-06-23T08:24:34.332Z,1724
2016-06-23T08:25:32.055Z,1720
2016-06-23T08:26:32.796Z,1696
2016-06-23T08:27:32.695Z,1696
2016-06-23T08:28:32.711Z,1684
2016-06-23T08:29:32.698Z,1676
2016-06-23T08:30:32.732Z,1664
2016-06-23T08:31:32.717Z,1652
2016-06-23T08:32:32.715Z,1644
2016-06-23T08:33:33.155Z,1636
2016-06-23T08:34:32.755Z,1624
2016-06-23T08:35:34.525Z,1620
2016-06-23T08:36:32.163Z,1608
2016-06-23T08:37:33.114Z,1608
2016-06-23T08:38:32.154Z,1612
2016-06-23T08:39:32.173Z,1620
2016-06-23T08:40:32.177Z,1620
2016-06-23T08:41:31.562Z,1632
2016-06-23T08:42:33.411Z,1648
2016-06-23T08:43:32.825Z,1652
2016-06-23T08:44:33.469Z,1660
2016-06-23T08:45:32.230Z,1668
2016-06-23T08:46:34.581Z,1696
2016-06-23T08:47:32.864Z,1704
2016-06-23T08:48:33.259Z,1732
2016-06-23T08:49:33.484Z,1324
2016-06-23T08:50:33.522Z,1776
2016-06-23T08:51:32.267Z,1828
2016-06-23T08:52:32.899Z,1860
2016-06-23T08:53:32.894Z,1880
2016-06-23T08:54:32.294Z,1912
2016-06-23T08:55:33.546Z,1928
2016-06-23T08:56:32.930Z,1932
2016-06-23T08:57:34.745Z,1920
2016-06-23T08:58:32.942Z,1908
2016-06-23T08:59:33.253Z,1912
2016-06-23T09:00:32.367Z,1928
2016-06-23T09:01:34.631Z,1916
2016-06-23T09:02:33.607Z,1904
2016-06-23T09:03:33.626Z,1912
2016-06-23T09:04:32.389Z,1940
2016-06-23T09:05:33.011Z,1928
2016-06-23T09:06:33.009Z,1828
2016-06-23T09:07:33.026Z,2112
2016-06-23T09:08:33.460Z,2048
2016-06-23T09:09:33.665Z,2088
2016-06-23T09:10:33.795Z,2104
2016-06-23T09:11:33.058Z,1716
2016-06-23T09:12:34.734Z,1612
2016-06-23T09:13:33.694Z,1956
2016-06-23T09:14:33.142Z,2060
2016-06-23T09:15:33.718Z,1608
2016-06-23T09:16:33.148Z,2444
2016-06-23T09:17:33.096Z,2572
2016-06-23T09:18:33.109Z,2568
2016-06-23T09:19:34.218Z,2624
2016-06-23T09:20:33.748Z,2620
2016-06-23T09:21:32.924Z,2672
2016-06-23T09:22:33.176Z,2640
2016-06-23T09:23:34.883Z,2444
2016-06-23T09:24:33.814Z,2384
2016-06-23T09:25:33.793Z,2156
2016-06-23T09:26:33.839Z,2416
2016-06-23T09:27:32.589Z,2612
2016-06-23T09:28:33.188Z,2220
2016-06-23T09:29:33.214Z,2168
2016-06-23T09:30:33.827Z,2140
2016-06-23T09:31:31.991Z,1948
2016-06-23T09:32:33.214Z,2508
2016-06-23T09:33:32.625Z,2608
2016-06-23T09:34:34.977Z,2708
2016-06-23T09:35:32.635Z,2772
2016-06-23T09:36:33.267Z,2216
2016-06-23T09:37:33.279Z,2372
2016-06-23T09:38:33.287Z,2488
2016-06-23T09:39:32.062Z,2568
2016-06-23T09:40:33.298Z,2604
2016-06-23T09:41:32.720Z,2528
2016-06-23T09:42:32.687Z,2440
2016-06-23T09:43:34.628Z,2392
2016-06-23T09:44:33.933Z,2320
2016-06-23T09:45:34.010Z,2004
2016-06-23T09:46:33.334Z,1756
2016-06-23T09:47:33.982Z,1764
2016-06-23T09:48:33.980Z,1652
2016-06-23T09:49:33.361Z,1728
2016-06-23T09:50:32.753Z,2108
2016-06-23T09:51:34.016Z,2076
2016-06-23T09:52:34.020Z,2028
2016-06-23T09:53:32.787Z,2000
2016-06-23T09:54:32.182Z,2000
2016-06-23T09:55:34.047Z,2056
2016-06-23T09:56:34.179Z,2112
2016-06-23T09:57:33.443Z,1948
2016-06-23T09:58:33.930Z,2088
2016-06-23T09:59:33.458Z,2060
2016-06-23T10:00:34.073Z,2004
2016-06-23T10:01:34.079Z,1936
2016-06-23T10:02:33.488Z,1912
2016-06-23T10:03:32.894Z,1860
2016-06-23T10:04:34.102Z,1832
2016-06-23T10:05:33.510Z,1812
2016-06-23T10:06:34.122Z,1796
2016-06-23T10:07:33.645Z,1780
2016-06-23T10:08:33.539Z,1752
2016-06-23T10:09:33.569Z,1740
2016-06-23T10:10:32.961Z,1732
2016-06-23T10:11:34.159Z,1720
2016-06-23T10:12:34.182Z,1704
2016-06-23T10:13:33.574Z,1688
2016-06-23T10:14:33.576Z,1688
2016-06-23T10:15:32.988Z,1660
2016-06-23T10:16:34.270Z,1660
2016-06-23T10:17:33.616Z,1648
2016-06-23T10:18:33.920Z,1648
2016-06-23T10:19:33.639Z,1636
2016-06-23T10:20:34.536Z,1620
2016-06-23T10:21:33.067Z,1608
2016-06-23T10:22:33.644Z,1588
2016-06-23T10:23:33.643Z,1608
2016-06-23T10:24:34.270Z,1608
2016-06-23T10:25:33.057Z,1596
2016-06-23T10:26:33.666Z,1556
2016-06-23T10:27:34.310Z,1536
2016-06-23T10:28:47.917Z,1516
2016-06-23T10:29:33.903Z,1472
2016-06-23T10:30:33.710Z,1504
2016-06-23T10:31:34.699Z,1528
2016-06-23T10:32:34.333Z,1452
2016-06-23T10:33:33.725Z,1600
2016-06-23T10:34:33.718Z,1592
2016-06-23T10:35:33.164Z,1592
2016-06-23T10:36:33.740Z,1588
2016-06-23T10:37:33.153Z,1592
2016-06-23T10:38:34.442Z,1596
2016-06-23T10:39:33.773Z,1592
2016-06-23T10:40:33.788Z,1604
2016-06-23T10:41:33.781Z,1612
2016-06-23T10:42:35.558Z,1624
2016-06-23T10:43:33.817Z,1648
2016-06-23T10:44:34.428Z,1652
2016-06-23T10:45:33.197Z,1688
2016-06-23T10:46:33.881Z,1684
2016-06-23T10:47:34.210Z,1672
2016-06-23T10:48:34.451Z,1684
2016-06-23T10:49:34.463Z,1732
2016-06-23T10:50:33.860Z,1780
2016-06-23T10:51:34.502Z,1920
2016-06-23T10:52:34.513Z,2116
2016-06-23T10:53:35.319Z,2264
2016-06-23T10:54:33.280Z,2284
2016-06-23T10:55:33.275Z,2228
2016-06-23T10:56:33.901Z,2236
2016-06-23T10:57:33.917Z,2212
2016-06-23T10:58:34.537Z,1600
2016-06-23T10:59:34.559Z,1828
2016-06-23T11:00:34.567Z,1976
2016-06-23T11:01:34.583Z,1432
2016-06-23T11:02:33.960Z,1288
2016-06-23T11:03:33.946Z,1276
2016-06-23T11:04:34.763Z,1228
2016-06-23T11:05:34.611Z,1816
2016-06-23T11:06:34.174Z,1328
2016-06-23T11:07:34.003Z,1348
2016-06-23T11:08:34.035Z,1336
2016-06-23T11:09:33.395Z,1916
2016-06-23T11:10:32.804Z,1340
2016-06-23T11:11:34.035Z,2108
2016-06-23T11:12:34.652Z,2196
2016-06-23T11:13:33.427Z,2220
2016-06-23T11:14:34.043Z,2164
2016-06-23T11:15:34.775Z,2080
2016-06-23T11:16:34.233Z,1892
2016-06-23T11:17:34.084Z,1748
2016-06-23T11:18:34.154Z,1684
2016-06-23T11:19:34.723Z,1460
2016-06-23T11:20:34.723Z,1640
2016-06-23T11:21:34.098Z,1604
2016-06-23T11:22:34.223Z,1580
2016-06-23T11:23:34.122Z,1556
2016-06-23T11:24:34.148Z,1552
2016-06-23T11:25:34.748Z,1504
2016-06-23T11:26:34.593Z,1576
2016-06-23T11:27:34.773Z,1560
2016-06-23T11:28:35.433Z,1580
2016-06-23T11:29:33.567Z,1588
2016-06-23T11:30:34.810Z,1592
2016-06-23T11:31:33.583Z,1588
2016-06-23T11:32:34.237Z,1596
2016-06-23T11:33:34.842Z,1556
2016-06-23T11:34:33.595Z,1564
2016-06-23T11:35:34.834Z,1548
2016-06-23T11:36:34.852Z,1600
2016-06-23T11:37:34.845Z,1648
2016-06-23T11:38:34.256Z,1660
2016-06-23T11:39:33.650Z,1660
2016-06-23T11:40:34.259Z,1656
2016-06-23T11:41:34.461Z,1656
2016-06-23T11:42:34.317Z,1680
2016-06-23T11:43:33.059Z,1720
2016-06-23T11:44:34.295Z,1768
2016-06-23T11:45:34.297Z,1800
2016-06-23T11:46:34.333Z,1856
2016-06-23T11:47:34.935Z,1908
2016-06-23T11:48:34.957Z,1944
2016-06-23T11:49:34.339Z,1712
2016-06-23T11:50:35.339Z,1700
2016-06-23T11:51:34.406Z,1552
2016-06-23T11:52:49.269Z,1540
2016-06-23T11:53:33.869Z,1416
2016-06-23T11:54:33.869Z,1160
2016-06-23T11:55:33.837Z,1096
2016-06-23T11:56:34.522Z,1172
2016-06-23T11:57:34.530Z,1104
2016-06-23T11:58:34.670Z,1156
2016-06-23T11:59:34.049Z,1228
2016-06-23T12:00:49.379Z,1244
2016-06-23T12:01:36.038Z,1236
2016-06-23T12:02:35.209Z,1244
2016-06-23T12:03:36.547Z,1332
2016-06-23T12:04:34.569Z,1360
2016-06-23T12:05:34.626Z,1444
2016-06-23T12:06:35.204Z,1480
2016-06-23T12:07:33.333Z,1508
2016-06-23T12:08:33.927Z,1492
2016-06-23T12:09:35.306Z,1488
2016-06-23T12:10:34.709Z,1488
2016-06-23T12:11:34.641Z,1520
2016-06-23T12:12:49.534Z,1524
2016-06-23T12:13:34.677Z,1612
2016-06-23T12:14:34.663Z,1772
2016-06-23T12:15:35.190Z,1776
2016-06-23T12:16:35.202Z,1860
2016-06-23T12:17:34.569Z,1752
2016-06-23T12:18:33.990Z,1752
2016-06-23T12:19:34.593Z,1956
2016-06-23T12:20:35.214Z,1996
2016-06-23T12:21:35.215Z,2040
2016-06-23T12:22:34.610Z,2016
2016-06-23T12:23:34.939Z,1996
2016-06-23T12:24:34.630Z,1976
2016-06-23T12:25:34.010Z,2012
2016-06-23T12:26:34.058Z,2036
2016-06-23T12:27:34.831Z,2068
2016-06-23T12:28:34.671Z,1976
2016-06-23T12:29:34.656Z,1776
2016-06-23T12:30:34.048Z,1452
2016-06-23T12:31:34.663Z,1304
2016-06-23T12:32:35.302Z,1516
2016-06-23T12:33:34.695Z,1476
2016-06-23T12:34:35.110Z,1132
2016-06-23T12:35:34.721Z,1340
2016-06-23T12:36:35.667Z,1304
2016-06-23T12:37:34.734Z,1308
2016-06-23T12:38:35.501Z,1316
2016-06-23T12:39:35.359Z,1324
2016-06-23T12:40:34.142Z,1300
2016-06-23T12:41:35.382Z,1284
2016-06-23T12:42:34.152Z,1256
2016-06-23T12:43:34.774Z,1156
2016-06-23T12:44:34.171Z,1120
2016-06-23T12:45:34.799Z,1116
2016-06-23T12:46:35.425Z,1096
2016-06-23T12:47:35.953Z,1100
2016-06-23T12:48:35.230Z,1076
2016-06-23T12:49:35.650Z,940
2016-06-23T12:50:35.456Z,1040
2016-06-23T12:51:35.479Z,1024
2016-06-23T12:52:34.864Z,996
2016-06-23T12:53:34.851Z,972
2016-06-23T12:54:34.851Z,972
2016-06-23T12:55:34.873Z,940
2016-06-23T12:56:33.676Z,728
2016-06-23T12:57:34.258Z,732
2016-06-23T12:58:36.621Z,844
2016-06-23T12:59:34.280Z,900
2016-06-23T13:00:34.925Z,888
2016-06-23T13:01:34.906Z,876
2016-06-23T13:02:35.950Z,788
2016-06-23T13:03:34.927Z,776
2016-06-23T13:04:35.563Z,800
2016-06-23T13:05:34.965Z,856
2016-06-23T13:06:34.964Z,888
2016-06-23T13:07:35.564Z,860
2016-06-23T13:08:34.972Z,836
2016-06-23T13:09:35.490Z,800
2016-06-23T13:10:35.618Z,796
2016-06-23T13:11:34.385Z,816
2016-06-23T13:12:34.994Z,840
2016-06-23T13:13:35.363Z,676
2016-06-23T13:14:35.637Z,760
2016-06-23T13:15:35.024Z,836
2016-06-23T13:16:35.030Z,720
2016-06-23T13:17:35.041Z,892
2016-06-23T13:18:35.046Z,740
2016-06-23T13:19:35.353Z,856
2016-06-23T13:20:36.281Z,852
2016-06-23T13:21:34.472Z,756
2016-06-23T13:22:36.838Z,904
2016-06-23T13:23:35.137Z,912
2016-06-23T13:24:35.585Z,988
2016-06-23T13:25:35.125Z,1000
2016-06-23T13:26:35.130Z,1060
2016-06-23T13:27:35.122Z,1020
2016-06-23T13:28:34.501Z,852
2016-06-23T13:29:35.182Z,948
2016-06-23T13:30:33.897Z,936
2016-06-23T13:31:34.547Z,932